sensor_id;sensor_type;location;lat;lon;timestamp;temperature;humidity
2749;DHT22;1382;52.142;11.618;2024-01-06T00:01:18;8.00;58.90
2749;DHT22;1382;52.142;11.618;2024-01-06T00:03:45;8.00;58.90
2749;DHT22;1382;52.142;11.618;2024-01-06T00:06:12;8.00;58.90
2749;DHT22;1382;52.142;11.618;2024-01-06T00:08:39;8.00;58.90
2749;DHT22;1382;52.142;11.618;2024-01-06T00:11:06;8.00;58.80
2749;DHT22;1382;52.142;11.618;2024-01-06T00:13:36;8.00;58.80
2749;DHT22;1382;52.142;11.618;2024-01-06T00:16:06;8.00;58.80
2749;DHT22;1382;52.142;11.618;2024-01-06T00:18:34;8.00;58.80
2749;DHT22;1382;52.142;11.618;2024-01-06T00:21:08;8.20;59.00
2749;DHT22;1382;52.142;11.618;2024-01-06T00:23:35;8.00;58.80
2749;DHT22;1382;52.142;11.618;2024-01-06T00:26:02;8.00;58.80
2749;DHT22;1382;52.142;11.618;2024-01-06T00:28:29;8.00;58.80
2749;DHT22;1382;52.142;11.618;2024-01-06T00:30:56;7.90;58.70
2749;DHT22;1382;52.142;11.618;2024-01-06T00:33:23;8.00;58.80
2749;DHT22;1382;52.142;11.618;2024-01-06T00:35:51;8.00;58.80
2749;DHT22;1382;52.142;11.618;2024-01-06T00:38:18;8.00;58.80
2749;DHT22;1382;52.142;11.618;2024-01-06T00:40:45;7.90;58.70
2749;DHT22;1382;52.142;11.618;2024-01-06T00:43:14;8.00;58.80
2749;DHT22;1382;52.142;11.618;2024-01-06T00:45:41;7.90;58.70
2749;DHT22;1382;52.142;11.618;2024-01-06T00:48:08;7.70;58.60
2749;DHT22;1382;52.142;11.618;2024-01-06T00:50:35;8.00;58.80
2749;DHT22;1382;52.142;11.618;2024-01-06T00:53:03;7.90;58.70
2749;DHT22;1382;52.142;11.618;2024-01-06T00:55:30;8.00;58.80
2749;DHT22;1382;52.142;11.618;2024-01-06T00:57:57;7.90;58.70
2749;DHT22;1382;52.142;11.618;2024-01-06T01:00:25;8.10;58.90
2749;DHT22;1382;52.142;11.618;2024-01-06T01:02:52;8.00;58.80
2749;DHT22;1382;52.142;11.618;2024-01-06T01:05:19;8.00;58.80
2749;DHT22;1382;52.142;11.618;2024-01-06T01:07:46;8.10;58.80
2749;DHT22;1382;52.142;11.618;2024-01-06T01:10:14;7.90;58.70
2749;DHT22;1382;52.142;11.618;2024-01-06T01:12:43;7.90;58.70
2749;DHT22;1382;52.142;11.618;2024-01-06T01:15:10;7.90;58.70
2749;DHT22;1382;52.142;11.618;2024-01-06T01:17:37;7.90;58.70
2749;DHT22;1382;52.142;11.618;2024-01-06T01:20:05;7.90;58.70
2749;DHT22;1382;52.142;11.618;2024-01-06T01:22:32;7.90;58.70
2749;DHT22;1382;52.142;11.618;2024-01-06T01:24:59;8.10;58.90
2749;DHT22;1382;52.142;11.618;2024-01-06T01:27:28;7.90;58.70
2749;DHT22;1382;52.142;11.618;2024-01-06T01:29:55;7.90;58.80
2749;DHT22;1382;52.142;11.618;2024-01-06T01:32:22;7.90;58.80
2749;DHT22;1382;52.142;11.618;2024-01-06T01:34:49;7.90;58.80
2749;DHT22;1382;52.142;11.618;2024-01-06T01:37:19;7.90;58.80
2749;DHT22;1382;52.142;11.618;2024-01-06T01:39:47;7.90;58.80
2749;DHT22;1382;52.142;11.618;2024-01-06T01:42:14;7.90;58.80
2749;DHT22;1382;52.142;11.618;2024-01-06T01:44:42;8.00;58.90
2749;DHT22;1382;52.142;11.618;2024-01-06T01:47:09;7.90;59.50
2749;DHT22;1382;52.142;11.618;2024-01-06T01:49:36;7.90;58.80
2749;DHT22;1382;52.142;11.618;2024-01-06T01:52:04;7.90;58.80
2749;DHT22;1382;52.142;11.618;2024-01-06T01:54:31;7.90;58.80
2749;DHT22;1382;52.142;11.618;2024-01-06T01:56:58;7.90;59.00
2749;DHT22;1382;52.142;11.618;2024-01-06T01:59:25;8.10;59.10
2749;DHT22;1382;52.142;11.618;2024-01-06T02:01:59;7.90;58.90
2749;DHT22;1382;52.142;11.618;2024-01-06T02:04:28;8.10;59.00
2749;DHT22;1382;52.142;11.618;2024-01-06T02:06:55;8.10;59.00
2749;DHT22;1382;52.142;11.618;2024-01-06T02:09:22;8.10;59.00
2749;DHT22;1382;52.142;11.618;2024-01-06T02:11:49;7.90;59.50
2749;DHT22;1382;52.142;11.618;2024-01-06T02:14:16;8.10;58.90
2749;DHT22;1382;52.142;11.618;2024-01-06T02:16:42;7.90;58.80
2749;DHT22;1382;52.142;11.618;2024-01-06T02:19:11;8.00;58.90
2749;DHT22;1382;52.142;11.618;2024-01-06T02:21:41;8.10;59.00
2749;DHT22;1382;52.142;11.618;2024-01-06T02:24:10;7.90;58.80
2749;DHT22;1382;52.142;11.618;2024-01-06T02:26:37;7.90;58.80
2749;DHT22;1382;52.142;11.618;2024-01-06T02:29:04;8.10;59.00
2749;DHT22;1382;52.142;11.618;2024-01-06T02:31:33;7.90;58.80
2749;DHT22;1382;52.142;11.618;2024-01-06T02:34:00;7.90;58.90
2749;DHT22;1382;52.142;11.618;2024-01-06T02:36:30;7.90;58.90
2749;DHT22;1382;52.142;11.618;2024-01-06T02:38:59;7.90;58.80
2749;DHT22;1382;52.142;11.618;2024-01-06T02:41:27;7.90;58.80
2749;DHT22;1382;52.142;11.618;2024-01-06T02:43:56;7.90;58.80
2749;DHT22;1382;52.142;11.618;2024-01-06T02:46:23;7.90;58.80
2749;DHT22;1382;52.142;11.618;2024-01-06T02:48:50;7.90;58.80
2749;DHT22;1382;52.142;11.618;2024-01-06T02:51:17;7.90;58.80
2749;DHT22;1382;52.142;11.618;2024-01-06T02:53:44;7.90;58.80
2749;DHT22;1382;52.142;11.618;2024-01-06T02:56:11;7.90;58.70
2749;DHT22;1382;52.142;11.618;2024-01-06T02:58:39;8.10;58.90
2749;DHT22;1382;52.142;11.618;2024-01-06T03:01:06;7.90;58.80
2749;DHT22;1382;52.142;11.618;2024-01-06T03:03:33;7.90;58.70
2749;DHT22;1382;52.142;11.618;2024-01-06T03:06:00;7.90;58.70
2749;DHT22;1382;52.142;11.618;2024-01-06T03:08:27;7.90;58.70
2749;DHT22;1382;52.142;11.618;2024-01-06T03:10:54;7.90;58.70
2749;DHT22;1382;52.142;11.618;2024-01-06T03:13:21;7.90;58.80
2749;DHT22;1382;52.142;11.618;2024-01-06T03:15:49;7.90;58.80
2749;DHT22;1382;52.142;11.618;2024-01-06T03:18:16;7.80;58.80
2749;DHT22;1382;52.142;11.618;2024-01-06T03:20:43;7.80;58.80
2749;DHT22;1382;52.142;11.618;2024-01-06T03:23:10;7.80;58.80
2749;DHT22;1382;52.142;11.618;2024-01-06T03:25:37;7.80;58.80
2749;DHT22;1382;52.142;11.618;2024-01-06T03:28:04;7.90;58.90
2749;DHT22;1382;52.142;11.618;2024-01-06T03:30:31;7.90;58.90
2749;DHT22;1382;52.142;11.618;2024-01-06T03:32:59;7.80;58.80
2749;DHT22;1382;52.142;11.618;2024-01-06T03:35:26;7.90;58.90
2749;DHT22;1382;52.142;11.618;2024-01-06T03:37:53;7.80;58.80
2749;DHT22;1382;52.142;11.618;2024-01-06T03:40:20;7.80;58.80
2749;DHT22;1382;52.142;11.618;2024-01-06T03:42:46;7.80;59.20
2749;DHT22;1382;52.142;11.618;2024-01-06T03:45:13;7.80;58.90
2749;DHT22;1382;52.142;11.618;2024-01-06T03:47:40;7.80;58.80
2749;DHT22;1382;52.142;11.618;2024-01-06T03:50:09;7.80;58.80
2749;DHT22;1382;52.142;11.618;2024-01-06T03:52:36;7.80;58.80
2749;DHT22;1382;52.142;11.618;2024-01-06T03:55:03;7.80;58.80
2749;DHT22;1382;52.142;11.618;2024-01-06T03:57:30;7.80;58.80
2749;DHT22;1382;52.142;11.618;2024-01-06T03:59:59;7.80;58.90
2749;DHT22;1382;52.142;11.618;2024-01-06T04:02:26;7.80;58.90
2749;DHT22;1382;52.142;11.618;2024-01-06T04:04:53;7.80;58.80
2749;DHT22;1382;52.142;11.618;2024-01-06T04:07:25;7.80;58.80
2749;DHT22;1382;52.142;11.618;2024-01-06T04:09:52;7.80;58.80
2749;DHT22;1382;52.142;11.618;2024-01-06T04:12:19;7.80;58.80
2749;DHT22;1382;52.142;11.618;2024-01-06T04:14:49;7.80;58.80
2749;DHT22;1382;52.142;11.618;2024-01-06T04:17:16;7.80;58.90
2749;DHT22;1382;52.142;11.618;2024-01-06T04:19:42;7.70;58.80
2749;DHT22;1382;52.142;11.618;2024-01-06T04:22:09;7.90;59.10
2749;DHT22;1382;52.142;11.618;2024-01-06T04:24:38;7.90;59.00
2749;DHT22;1382;52.142;11.618;2024-01-06T04:27:05;7.80;58.90
2749;DHT22;1382;52.142;11.618;2024-01-06T04:29:31;7.80;58.90
2749;DHT22;1382;52.142;11.618;2024-01-06T04:31:58;7.70;58.80
2749;DHT22;1382;52.142;11.618;2024-01-06T04:34:25;7.80;58.90
2749;DHT22;1382;52.142;11.618;2024-01-06T04:36:52;7.80;58.80
2749;DHT22;1382;52.142;11.618;2024-01-06T04:39:19;7.70;58.80
2749;DHT22;1382;52.142;11.618;2024-01-06T04:41:47;7.80;58.90
2749;DHT22;1382;52.142;11.618;2024-01-06T04:44:14;7.80;58.90
2749;DHT22;1382;52.142;11.618;2024-01-06T04:46:40;7.80;58.90
2749;DHT22;1382;52.142;11.618;2024-01-06T04:49:08;7.70;58.80
2749;DHT22;1382;52.142;11.618;2024-01-06T04:51:35;7.80;58.90
2749;DHT22;1382;52.142;11.618;2024-01-06T04:54:02;7.80;58.90
2749;DHT22;1382;52.142;11.618;2024-01-06T04:56:29;7.70;58.90
2749;DHT22;1382;52.142;11.618;2024-01-06T04:59:04;7.80;59.00
2749;DHT22;1382;52.142;11.618;2024-01-06T05:01:33;7.70;58.90
2749;DHT22;1382;52.142;11.618;2024-01-06T05:04:00;7.70;59.00
2749;DHT22;1382;52.142;11.618;2024-01-06T05:06:34;7.70;58.90
2749;DHT22;1382;52.142;11.618;2024-01-06T05:09:01;7.70;58.90
2749;DHT22;1382;52.142;11.618;2024-01-06T05:11:27;7.90;59.10
2749;DHT22;1382;52.142;11.618;2024-01-06T05:13:54;7.70;58.90
2749;DHT22;1382;52.142;11.618;2024-01-06T05:16:25;7.70;58.90
2749;DHT22;1382;52.142;11.618;2024-01-06T05:18:51;7.70;58.90
2749;DHT22;1382;52.142;11.618;2024-01-06T05:21:19;7.70;58.80
2749;DHT22;1382;52.142;11.618;2024-01-06T05:23:49;7.70;58.80
2749;DHT22;1382;52.142;11.618;2024-01-06T05:26:16;7.70;58.80
2749;DHT22;1382;52.142;11.618;2024-01-06T05:28:43;7.70;58.80
2749;DHT22;1382;52.142;11.618;2024-01-06T05:31:09;7.70;58.80
2749;DHT22;1382;52.142;11.618;2024-01-06T05:33:38;7.70;58.90
2749;DHT22;1382;52.142;11.618;2024-01-06T05:36:05;7.70;59.00
2749;DHT22;1382;52.142;11.618;2024-01-06T05:38:32;7.70;59.00
2749;DHT22;1382;52.142;11.618;2024-01-06T05:40:59;7.70;59.00
2749;DHT22;1382;52.142;11.618;2024-01-06T05:43:25;7.70;59.00
2749;DHT22;1382;52.142;11.618;2024-01-06T05:45:54;7.70;59.00
2749;DHT22;1382;52.142;11.618;2024-01-06T05:48:21;7.90;59.20
2749;DHT22;1382;52.142;11.618;2024-01-06T05:50:49;7.70;59.00
2749;DHT22;1382;52.142;11.618;2024-01-06T05:53:16;7.70;59.00
2749;DHT22;1382;52.142;11.618;2024-01-06T05:55:43;7.70;59.00
2749;DHT22;1382;52.142;11.618;2024-01-06T05:58:10;7.70;59.10
2749;DHT22;1382;52.142;11.618;2024-01-06T06:00:36;7.70;59.00
2749;DHT22;1382;52.142;11.618;2024-01-06T06:03:21;7.70;59.00
2749;DHT22;1382;52.142;11.618;2024-01-06T06:05:54;7.70;59.00
2749;DHT22;1382;52.142;11.618;2024-01-06T06:08:21;7.70;59.00
2749;DHT22;1382;52.142;11.618;2024-01-06T06:10:48;7.70;59.00
2749;DHT22;1382;52.142;11.618;2024-01-06T06:13:15;7.70;59.00
2749;DHT22;1382;52.142;11.618;2024-01-06T06:15:41;7.70;59.00
2749;DHT22;1382;52.142;11.618;2024-01-06T06:18:08;7.70;59.00
2749;DHT22;1382;52.142;11.618;2024-01-06T06:20:35;7.70;59.00
2749;DHT22;1382;52.142;11.618;2024-01-06T06:23:04;7.70;59.00
2749;DHT22;1382;52.142;11.618;2024-01-06T06:25:30;7.70;59.00
2749;DHT22;1382;52.142;11.618;2024-01-06T06:27:57;7.70;59.00
2749;DHT22;1382;52.142;11.618;2024-01-06T06:30:24;7.70;59.00
2749;DHT22;1382;52.142;11.618;2024-01-06T06:32:51;7.50;58.80
2749;DHT22;1382;52.142;11.618;2024-01-06T06:35:18;7.70;59.00
2749;DHT22;1382;52.142;11.618;2024-01-06T06:37:45;7.70;58.90
2749;DHT22;1382;52.142;11.618;2024-01-06T06:40:13;7.70;59.00
2749;DHT22;1382;52.142;11.618;2024-01-06T06:42:40;7.70;59.00
2749;DHT22;1382;52.142;11.618;2024-01-06T06:45:08;7.70;59.00
2749;DHT22;1382;52.142;11.618;2024-01-06T06:47:37;7.70;59.00
2749;DHT22;1382;52.142;11.618;2024-01-06T06:50:05;7.70;59.00
2749;DHT22;1382;52.142;11.618;2024-01-06T06:52:32;7.70;59.00
2749;DHT22;1382;52.142;11.618;2024-01-06T06:54:59;7.70;59.00
2749;DHT22;1382;52.142;11.618;2024-01-06T06:57:27;7.70;58.90
2749;DHT22;1382;52.142;11.618;2024-01-06T06:59:54;7.70;58.90
2749;DHT22;1382;52.142;11.618;2024-01-06T07:02:21;7.70;58.90
2749;DHT22;1382;52.142;11.618;2024-01-06T07:04:47;7.70;58.90
2749;DHT22;1382;52.142;11.618;2024-01-06T07:07:14;7.70;58.90
2749;DHT22;1382;52.142;11.618;2024-01-06T07:09:41;7.70;59.00
2749;DHT22;1382;52.142;11.618;2024-01-06T07:12:08;7.60;59.00
2749;DHT22;1382;52.142;11.618;2024-01-06T07:14:36;7.60;59.00
2749;DHT22;1382;52.142;11.618;2024-01-06T07:17:06;7.60;59.10
2749;DHT22;1382;52.142;11.618;2024-01-06T07:19:32;7.70;59.10
2749;DHT22;1382;52.142;11.618;2024-01-06T07:21:59;7.60;59.10
2749;DHT22;1382;52.142;11.618;2024-01-06T07:24:30;7.60;59.10
2749;DHT22;1382;52.142;11.618;2024-01-06T07:27:14;7.60;59.10
2749;DHT22;1382;52.142;11.618;2024-01-06T07:29:44;7.70;59.10
2749;DHT22;1382;52.142;11.618;2024-01-06T07:32:11;7.60;59.20
2749;DHT22;1382;52.142;11.618;2024-01-06T07:34:38;7.60;59.20
2749;DHT22;1382;52.142;11.618;2024-01-06T07:37:05;7.60;59.20
2749;DHT22;1382;52.142;11.618;2024-01-06T07:39:32;7.60;59.10
2749;DHT22;1382;52.142;11.618;2024-01-06T07:41:59;7.60;59.10
2749;DHT22;1382;52.142;11.618;2024-01-06T07:44:26;7.60;59.10
2749;DHT22;1382;52.142;11.618;2024-01-06T07:46:54;7.60;59.10
2749;DHT22;1382;52.142;11.618;2024-01-06T07:49:21;7.60;59.10
2749;DHT22;1382;52.142;11.618;2024-01-06T07:51:48;7.60;59.20
2749;DHT22;1382;52.142;11.618;2024-01-06T07:54:15;7.60;59.10
2749;DHT22;1382;52.142;11.618;2024-01-06T07:56:42;7.60;59.10
2749;DHT22;1382;52.142;11.618;2024-01-06T07:59:09;7.60;59.10
2749;DHT22;1382;52.142;11.618;2024-01-06T08:01:36;7.70;59.20
2749;DHT22;1382;52.142;11.618;2024-01-06T08:04:05;7.60;59.10
2749;DHT22;1382;52.142;11.618;2024-01-06T08:06:32;7.60;59.10
2749;DHT22;1382;52.142;11.618;2024-01-06T08:08:58;7.60;59.20
2749;DHT22;1382;52.142;11.618;2024-01-06T08:11:25;7.60;59.20
2749;DHT22;1382;52.142;11.618;2024-01-06T08:13:52;7.60;59.20
2749;DHT22;1382;52.142;11.618;2024-01-06T08:16:19;7.60;59.30
2749;DHT22;1382;52.142;11.618;2024-01-06T08:18:47;7.50;59.20
2749;DHT22;1382;52.142;11.618;2024-01-06T08:21:15;7.50;59.20
2749;DHT22;1382;52.142;11.618;2024-01-06T08:23:42;7.60;59.30
2749;DHT22;1382;52.142;11.618;2024-01-06T08:26:09;7.50;59.20
2749;DHT22;1382;52.142;11.618;2024-01-06T08:28:39;7.50;59.30
2749;DHT22;1382;52.142;11.618;2024-01-06T08:31:06;7.50;59.30
2749;DHT22;1382;52.142;11.618;2024-01-06T08:33:33;7.70;59.40
2749;DHT22;1382;52.142;11.618;2024-01-06T08:36:00;7.60;59.30
2749;DHT22;1382;52.142;11.618;2024-01-06T08:38:28;7.60;59.30
2749;DHT22;1382;52.142;11.618;2024-01-06T08:40:55;7.60;59.20
2749;DHT22;1382;52.142;11.618;2024-01-06T08:43:22;7.60;59.30
2749;DHT22;1382;52.142;11.618;2024-01-06T08:45:49;7.60;59.30
2749;DHT22;1382;52.142;11.618;2024-01-06T08:48:16;7.60;59.30
2749;DHT22;1382;52.142;11.618;2024-01-06T08:50:44;7.60;59.30
2749;DHT22;1382;52.142;11.618;2024-01-06T08:53:13;7.60;59.30
2749;DHT22;1382;52.142;11.618;2024-01-06T08:55:42;7.60;59.40
2749;DHT22;1382;52.142;11.618;2024-01-06T08:58:12;7.60;59.30
2749;DHT22;1382;52.142;11.618;2024-01-06T09:00:39;7.50;59.20
2749;DHT22;1382;52.142;11.618;2024-01-06T09:03:06;7.50;59.20
2749;DHT22;1382;52.142;11.618;2024-01-06T09:05:33;7.50;59.20
2749;DHT22;1382;52.142;11.618;2024-01-06T09:08:00;7.60;59.30
2749;DHT22;1382;52.142;11.618;2024-01-06T09:10:27;7.50;59.20
2749;DHT22;1382;52.142;11.618;2024-01-06T09:12:55;7.60;59.30
2749;DHT22;1382;52.142;11.618;2024-01-06T09:15:22;7.60;59.30
2749;DHT22;1382;52.142;11.618;2024-01-06T09:17:49;7.50;59.20
2749;DHT22;1382;52.142;11.618;2024-01-06T09:20:20;7.60;59.30
2749;DHT22;1382;52.142;11.618;2024-01-06T09:22:57;7.60;59.30
2749;DHT22;1382;52.142;11.618;2024-01-06T09:25:24;7.60;59.30
2749;DHT22;1382;52.142;11.618;2024-01-06T09:27:51;7.50;59.30
2749;DHT22;1382;52.142;11.618;2024-01-06T09:30:19;7.60;59.30
2749;DHT22;1382;52.142;11.618;2024-01-06T09:32:48;7.60;59.30
2749;DHT22;1382;52.142;11.618;2024-01-06T09:35:31;7.60;59.90
2749;DHT22;1382;52.142;11.618;2024-01-06T09:38:00;7.70;59.40
2749;DHT22;1382;52.142;11.618;2024-01-06T09:40:27;7.50;59.20
2749;DHT22;1382;52.142;11.618;2024-01-06T09:42:56;7.60;59.20
2749;DHT22;1382;52.142;11.618;2024-01-06T09:45:24;7.60;59.20
2749;DHT22;1382;52.142;11.618;2024-01-06T09:47:52;7.60;59.20
2749;DHT22;1382;52.142;11.618;2024-01-06T09:50:19;7.60;59.20
2749;DHT22;1382;52.142;11.618;2024-01-06T09:52:48;7.60;59.30
2749;DHT22;1382;52.142;11.618;2024-01-06T09:55:15;7.60;59.20
2749;DHT22;1382;52.142;11.618;2024-01-06T09:57:45;7.60;59.20
2749;DHT22;1382;52.142;11.618;2024-01-06T10:00:12;7.60;59.30
2749;DHT22;1382;52.142;11.618;2024-01-06T10:02:42;7.60;59.20
2749;DHT22;1382;52.142;11.618;2024-01-06T10:05:10;7.60;59.20
2749;DHT22;1382;52.142;11.618;2024-01-06T10:07:38;7.60;59.20
2749;DHT22;1382;52.142;11.618;2024-01-06T10:10:08;7.60;59.20
2749;DHT22;1382;52.142;11.618;2024-01-06T10:12:37;7.60;59.20
2749;DHT22;1382;52.142;11.618;2024-01-06T10:15:05;7.60;59.20
2749;DHT22;1382;52.142;11.618;2024-01-06T10:17:32;7.60;59.20
2749;DHT22;1382;52.142;11.618;2024-01-06T10:20:00;7.60;59.20
2749;DHT22;1382;52.142;11.618;2024-01-06T10:22:28;7.60;59.20
2749;DHT22;1382;52.142;11.618;2024-01-06T10:24:55;7.60;59.30
2749;DHT22;1382;52.142;11.618;2024-01-06T10:27:22;7.60;59.30
2749;DHT22;1382;52.142;11.618;2024-01-06T10:29:49;7.50;59.20
2749;DHT22;1382;52.142;11.618;2024-01-06T10:32:16;7.60;59.30
2749;DHT22;1382;52.142;11.618;2024-01-06T10:34:44;7.70;59.40
2749;DHT22;1382;52.142;11.618;2024-01-06T10:37:13;7.50;59.30
2749;DHT22;1382;52.142;11.618;2024-01-06T10:39:40;7.70;59.40
2749;DHT22;1382;52.142;11.618;2024-01-06T10:42:07;7.50;59.20
2749;DHT22;1382;52.142;11.618;2024-01-06T10:44:36;7.50;59.20
2749;DHT22;1382;52.142;11.618;2024-01-06T10:47:04;7.70;59.40
2749;DHT22;1382;52.142;11.618;2024-01-06T10:49:33;7.70;59.40
2749;DHT22;1382;52.142;11.618;2024-01-06T10:52:02;7.50;60.00
2749;DHT22;1382;52.142;11.618;2024-01-06T10:54:33;7.50;59.20
2749;DHT22;1382;52.142;11.618;2024-01-06T10:57:01;7.50;59.20
2749;DHT22;1382;52.142;11.618;2024-01-06T10:59:30;7.60;59.30
2749;DHT22;1382;52.142;11.618;2024-01-06T11:01:59;7.50;59.30
2749;DHT22;1382;52.142;11.618;2024-01-06T11:04:27;7.50;59.20
2749;DHT22;1382;52.142;11.618;2024-01-06T11:06:54;7.50;59.20
2749;DHT22;1382;52.142;11.618;2024-01-06T11:09:24;7.50;59.30
2749;DHT22;1382;52.142;11.618;2024-01-06T11:11:55;7.50;59.30
2749;DHT22;1382;52.142;11.618;2024-01-06T11:14:23;7.50;59.30
2749;DHT22;1382;52.142;11.618;2024-01-06T11:16:52;7.50;59.30
2749;DHT22;1382;52.142;11.618;2024-01-06T11:19:42;7.50;59.30
2749;DHT22;1382;52.142;11.618;2024-01-06T11:22:25;7.50;59.20
2749;DHT22;1382;52.142;11.618;2024-01-06T11:24:54;7.40;59.20
2749;DHT22;1382;52.142;11.618;2024-01-06T11:27:23;7.40;59.30
2749;DHT22;1382;52.142;11.618;2024-01-06T11:29:54;7.40;59.30
2749;DHT22;1382;52.142;11.618;2024-01-06T11:32:26;7.40;59.30
2749;DHT22;1382;52.142;11.618;2024-01-06T11:34:54;7.40;60.00
2749;DHT22;1382;52.142;11.618;2024-01-06T11:37:25;7.40;59.30
2749;DHT22;1382;52.142;11.618;2024-01-06T11:39:52;7.40;59.30
2749;DHT22;1382;52.142;11.618;2024-01-06T11:42:19;7.40;59.30
2749;DHT22;1382;52.142;11.618;2024-01-06T11:44:51;7.40;59.30
2749;DHT22;1382;52.142;11.618;2024-01-06T11:47:18;7.40;59.30
2749;DHT22;1382;52.142;11.618;2024-01-06T11:49:46;7.40;59.30
2749;DHT22;1382;52.142;11.618;2024-01-06T11:52:14;7.40;59.30
2749;DHT22;1382;52.142;11.618;2024-01-06T11:54:41;7.40;59.30
2749;DHT22;1382;52.142;11.618;2024-01-06T11:57:08;7.40;59.30
2749;DHT22;1382;52.142;11.618;2024-01-06T11:59:35;7.40;59.30
2749;DHT22;1382;52.142;11.618;2024-01-06T12:02:03;7.40;59.30
2749;DHT22;1382;52.142;11.618;2024-01-06T12:04:30;7.30;59.30
2749;DHT22;1382;52.142;11.618;2024-01-06T12:07:05;7.40;59.40
2749;DHT22;1382;52.142;11.618;2024-01-06T12:09:32;7.50;59.50
2749;DHT22;1382;52.142;11.618;2024-01-06T12:12:01;7.30;59.30
2749;DHT22;1382;52.142;11.618;2024-01-06T12:14:28;7.30;59.50
2749;DHT22;1382;52.142;11.618;2024-01-06T12:16:55;7.30;59.30
2749;DHT22;1382;52.142;11.618;2024-01-06T12:19:23;7.30;59.40
2749;DHT22;1382;52.142;11.618;2024-01-06T12:21:50;7.30;59.30
2749;DHT22;1382;52.142;11.618;2024-01-06T12:24:18;7.30;59.40
2749;DHT22;1382;52.142;11.618;2024-01-06T12:26:45;7.30;59.50
2749;DHT22;1382;52.142;11.618;2024-01-06T12:29:12;7.30;59.50
2749;DHT22;1382;52.142;11.618;2024-01-06T12:31:39;7.30;59.50
2749;DHT22;1382;52.142;11.618;2024-01-06T12:34:07;7.30;59.50
2749;DHT22;1382;52.142;11.618;2024-01-06T12:36:36;7.30;59.40
2749;DHT22;1382;52.142;11.618;2024-01-06T12:39:03;7.30;60.10
2749;DHT22;1382;52.142;11.618;2024-01-06T12:41:30;7.20;59.40
2749;DHT22;1382;52.142;11.618;2024-01-06T12:43:57;7.20;59.40
2749;DHT22;1382;52.142;11.618;2024-01-06T12:46:24;7.20;59.40
2749;DHT22;1382;52.142;11.618;2024-01-06T12:48:51;7.40;59.60
2749;DHT22;1382;52.142;11.618;2024-01-06T12:51:18;7.20;59.40
2749;DHT22;1382;52.142;11.618;2024-01-06T12:53:47;7.10;59.30
2749;DHT22;1382;52.142;11.618;2024-01-06T12:56:14;7.40;59.60
2749;DHT22;1382;52.142;11.618;2024-01-06T12:58:42;7.20;59.50
2749;DHT22;1382;52.142;11.618;2024-01-06T13:01:22;7.20;59.50
2749;DHT22;1382;52.142;11.618;2024-01-06T13:06:39;7.30;59.60
2749;DHT22;1382;52.142;11.618;2024-01-06T13:09:13;7.10;59.60
2749;DHT22;1382;52.142;11.618;2024-01-06T13:11:43;7.10;59.60
2749;DHT22;1382;52.142;11.618;2024-01-06T13:14:17;7.10;59.70
2749;DHT22;1382;52.142;11.618;2024-01-06T13:17:11;7.10;59.60
2749;DHT22;1382;52.142;11.618;2024-01-06T13:19:43;7.20;59.80
2749;DHT22;1382;52.142;11.618;2024-01-06T13:22:09;7.10;59.70
2749;DHT22;1382;52.142;11.618;2024-01-06T13:24:38;7.10;59.70
2749;DHT22;1382;52.142;11.618;2024-01-06T13:27:06;7.20;59.80
2749;DHT22;1382;52.142;11.618;2024-01-06T13:29:34;7.20;59.80
2749;DHT22;1382;52.142;11.618;2024-01-06T13:32:00;7.10;59.60
2749;DHT22;1382;52.142;11.618;2024-01-06T13:34:27;7.10;59.60
2749;DHT22;1382;52.142;11.618;2024-01-06T13:36:54;7.00;59.60
2749;DHT22;1382;52.142;11.618;2024-01-06T13:39:23;7.10;59.60
2749;DHT22;1382;52.142;11.618;2024-01-06T13:41:51;7.30;59.70
2749;DHT22;1382;52.142;11.618;2024-01-06T13:44:18;7.10;59.50
2749;DHT22;1382;52.142;11.618;2024-01-06T13:46:45;7.00;59.50
2749;DHT22;1382;52.142;11.618;2024-01-06T13:49:12;7.10;59.60
2749;DHT22;1382;52.142;11.618;2024-01-06T13:51:39;7.00;59.50
2749;DHT22;1382;52.142;11.618;2024-01-06T13:54:06;7.00;59.40
2749;DHT22;1382;52.142;11.618;2024-01-06T13:56:33;7.00;59.50
2749;DHT22;1382;52.142;11.618;2024-01-06T13:59:01;7.00;59.50
2749;DHT22;1382;52.142;11.618;2024-01-06T14:01:28;7.00;59.50
2749;DHT22;1382;52.142;11.618;2024-01-06T14:03:55;7.00;59.50
2749;DHT22;1382;52.142;11.618;2024-01-06T14:06:22;7.00;59.50
2749;DHT22;1382;52.142;11.618;2024-01-06T14:08:50;7.00;59.40
2749;DHT22;1382;52.142;11.618;2024-01-06T14:11:17;7.00;59.50
2749;DHT22;1382;52.142;11.618;2024-01-06T14:13:44;7.00;59.40
2749;DHT22;1382;52.142;11.618;2024-01-06T14:16:12;7.00;59.50
2749;DHT22;1382;52.142;11.618;2024-01-06T14:18:39;7.00;59.40
2749;DHT22;1382;52.142;11.618;2024-01-06T14:21:06;7.00;59.50
2749;DHT22;1382;52.142;11.618;2024-01-06T14:23:33;6.90;59.40
2749;DHT22;1382;52.142;11.618;2024-01-06T14:26:00;7.00;59.40
2749;DHT22;1382;52.142;11.618;2024-01-06T14:28:27;7.00;59.40
2749;DHT22;1382;52.142;11.618;2024-01-06T14:30:53;7.00;59.30
2749;DHT22;1382;52.142;11.618;2024-01-06T14:33:22;7.00;59.30
2749;DHT22;1382;52.142;11.618;2024-01-06T14:35:49;7.00;59.60
2749;DHT22;1382;52.142;11.618;2024-01-06T14:38:15;7.00;59.20
2749;DHT22;1382;52.142;11.618;2024-01-06T14:40:42;7.00;59.20
2749;DHT22;1382;52.142;11.618;2024-01-06T14:43:09;6.90;59.10
2749;DHT22;1382;52.142;11.618;2024-01-06T14:45:36;6.90;59.20
2749;DHT22;1382;52.142;11.618;2024-01-06T14:48:03;6.90;59.20
2749;DHT22;1382;52.142;11.618;2024-01-06T14:50:31;6.90;59.30
2749;DHT22;1382;52.142;11.618;2024-01-06T14:52:58;6.90;59.30
2749;DHT22;1382;52.142;11.618;2024-01-06T14:55:25;6.90;59.20
2749;DHT22;1382;52.142;11.618;2024-01-06T14:57:51;6.80;59.20
2749;DHT22;1382;52.142;11.618;2024-01-06T15:00:19;7.00;59.40
2749;DHT22;1382;52.142;11.618;2024-01-06T15:02:46;6.80;59.30
2749;DHT22;1382;52.142;11.618;2024-01-06T15:05:13;6.80;59.30
2749;DHT22;1382;52.142;11.618;2024-01-06T15:07:41;6.80;59.30
2749;DHT22;1382;52.142;11.618;2024-01-06T15:10:08;6.80;59.30
2749;DHT22;1382;52.142;11.618;2024-01-06T15:12:35;6.80;59.30
2749;DHT22;1382;52.142;11.618;2024-01-06T15:15:03;6.80;59.30
2749;DHT22;1382;52.142;11.618;2024-01-06T15:17:30;6.70;59.30
2749;DHT22;1382;52.142;11.618;2024-01-06T15:19:56;6.70;59.30
2749;DHT22;1382;52.142;11.618;2024-01-06T15:22:24;6.70;59.30
2749;DHT22;1382;52.142;11.618;2024-01-06T15:24:52;6.70;59.30
2749;DHT22;1382;52.142;11.618;2024-01-06T15:27:24;6.70;59.30
2749;DHT22;1382;52.142;11.618;2024-01-06T15:29:51;6.70;59.30
2749;DHT22;1382;52.142;11.618;2024-01-06T15:32:18;6.80;59.30
2749;DHT22;1382;52.142;11.618;2024-01-06T15:34:45;6.70;59.20
2749;DHT22;1382;52.142;11.618;2024-01-06T15:37:12;6.70;59.30
2749;DHT22;1382;52.142;11.618;2024-01-06T15:39:39;6.70;59.30
2749;DHT22;1382;52.142;11.618;2024-01-06T15:42:07;6.70;59.20
2749;DHT22;1382;52.142;11.618;2024-01-06T15:44:34;6.70;59.20
2749;DHT22;1382;52.142;11.618;2024-01-06T15:47:00;6.70;59.20
2749;DHT22;1382;52.142;11.618;2024-01-06T15:49:27;6.70;59.30
2749;DHT22;1382;52.142;11.618;2024-01-06T15:51:54;6.70;59.20
2749;DHT22;1382;52.142;11.618;2024-01-06T15:54:21;6.60;59.10
2749;DHT22;1382;52.142;11.618;2024-01-06T15:56:49;6.60;59.10
2749;DHT22;1382;52.142;11.618;2024-01-06T15:59:18;6.70;59.20
2749;DHT22;1382;52.142;11.618;2024-01-06T16:01:45;6.50;59.10
2749;DHT22;1382;52.142;11.618;2024-01-06T16:04:12;6.60;59.20
2749;DHT22;1382;52.142;11.618;2024-01-06T16:06:39;6.60;59.20
2749;DHT22;1382;52.142;11.618;2024-01-06T16:09:06;6.60;59.20